Time;durP1;ratioP1;P1;durP2;ratioP2;P2;SDS_P1;SDS_P2;PMS_P1;PMS_P2;Temp;Humidity;BMP_temperature;BMP_pressure;BME280_temperature;BME280_humidity;BME280_pressure;Samples;Min_cycle;Max_cycle;Signal;HPM_P1;HPM_P2
2021/08/21 00:02:18;;;;;;;1999.90;999.90;;;16.80;99.90;;;;;;5096576;28;20445;-85
2021/08/21 00:04:46;;;;;;;1999.90;999.90;;;16.70;99.90;;;;;;5086673;28;20545;-86
2021/08/21 00:07:15;;;;;;;1999.90;999.90;;;16.70;99.90;;;;;;5087178;28;20512;-85
2021/08/21 00:09:41;;;;;;;1999.90;999.90;;;16.80;99.90;;;;;;5087629;28;20445;-85
2021/08/21 00:12:08;;;;;;;1999.90;999.90;;;16.70;99.90;;;;;;5094066;28;20900;-85
2021/08/21 00:14:35;;;;;;;1999.90;999.90;;;16.70;99.90;;;;;;5081525;28;20455;-85
2021/08/21 00:17:04;;;;;;;1999.90;999.90;;;16.70;99.90;;;;;;5086631;28;20455;-85
2021/08/21 00:19:30;;;;;;;1999.90;999.90;;;16.70;99.90;;;;;;5086239;28;20442;-85
2021/08/21 00:21:57;;;;;;;1999.90;999.90;;;16.60;99.90;;;;;;5080109;28;20542;-86
2021/08/21 00:24:26;;;;;;;1999.90;999.90;;;16.60;99.90;;;;;;5093841;28;21051;-85
2021/08/21 00:26:52;;;;;;;1999.90;999.90;;;16.60;99.90;;;;;;5088995;28;20578;-85
2021/08/21 00:29:20;;;;;;;1999.90;999.90;;;16.60;99.90;;;;;;5086902;28;20480;-85
2021/08/21 00:31:47;;;;;;;1999.90;999.90;;;16.60;99.90;;;;;;5082164;28;20458;-85
2021/08/21 00:34:13;;;;;;;1999.90;999.90;;;16.50;99.90;;;;;;5095415;28;20445;-85
2021/08/21 00:36:40;;;;;;;1999.90;999.90;;;16.50;99.90;;;;;;5080230;28;20569;-85
2021/08/21 00:39:07;;;;;;;1999.90;999.90;;;16.50;99.90;;;;;;5088385;28;20449;-86
2021/08/21 00:41:36;;;;;;;1999.90;999.90;;;16.50;99.90;;;;;;5083324;28;20477;-85
2021/08/21 00:44:06;;;;;;;1999.90;999.90;;;16.50;99.90;;;;;;5092599;28;20672;-85
2021/08/21 00:46:33;;;;;;;1999.90;999.90;;;16.40;99.90;;;;;;5081446;28;20484;-85
2021/08/21 00:48:59;;;;;;;1999.90;999.90;;;16.40;99.90;;;;;;5095818;28;20448;-85
2021/08/21 00:51:26;;;;;;;1999.90;999.90;;;16.40;99.90;;;;;;5095498;28;20456;-86
2021/08/21 00:53:53;;;;;;;1999.90;999.90;;;16.40;99.90;;;;;;5082413;28;20456;-85
2021/08/21 00:56:20;;;;;;;1999.90;999.90;;;16.40;99.90;;;;;;5074916;28;20554;-86
2021/08/21 00:58:48;;;;;;;1999.90;999.90;;;16.30;99.90;;;;;;5074860;28;20464;-84
2021/08/21 01:01:15;;;;;;;1999.90;999.90;;;16.30;99.90;;;;;;5075039;28;20452;-85
2021/08/21 01:03:42;;;;;;;1999.90;999.90;;;16.40;99.90;;;;;;5074649;28;20659;-85
2021/08/21 01:06:09;;;;;;;1999.90;999.90;;;16.30;99.90;;;;;;5074282;28;20494;-85
2021/08/21 01:08:36;;;;;;;1999.90;999.90;;;16.30;99.90;;;;;;5077796;28;20535;-85
2021/08/21 01:11:03;;;;;;;1999.90;999.90;;;16.30;99.90;;;;;;5094731;28;20457;-84
2021/08/21 01:13:29;;;;;;;1999.90;999.90;;;16.20;99.90;;;;;;5088706;28;20468;-85
2021/08/21 01:15:58;;;;;;;1999.90;999.90;;;16.20;99.90;;;;;;5086094;28;20474;-85
2021/08/21 01:18:26;;;;;;;1999.90;999.90;;;16.20;99.90;;;;;;5093842;28;20451;-85
2021/08/21 01:20:54;;;;;;;1999.90;999.90;;;16.20;99.90;;;;;;5086161;28;20932;-86
2021/08/21 01:23:21;;;;;;;1999.90;999.90;;;16.20;99.90;;;;;;5088081;28;20543;-85
2021/08/21 01:25:48;;;;;;;1999.90;999.90;;;16.20;99.90;;;;;;5077914;28;20475;-85
2021/08/21 01:28:16;;;;;;;1999.90;999.90;;;16.10;99.90;;;;;;5093412;28;20448;-86
2021/08/21 01:30:44;;;;;;;1999.90;999.90;;;16.10;99.90;;;;;;5095443;28;20453;-85
2021/08/21 01:33:11;;;;;;;1999.90;999.90;;;16.10;99.90;;;;;;5095490;28;20456;-86
2021/08/21 01:35:37;;;;;;;1999.90;999.90;;;16.10;99.90;;;;;;5108611;28;20667;-85
2021/08/21 01:38:04;;;;;;;1999.90;999.90;;;16.00;99.90;;;;;;5093891;28;20475;-86
2021/08/21 01:40:31;;;;;;;1999.90;999.90;;;16.00;99.90;;;;;;5084346;28;20461;-84
2021/08/21 01:42:58;;;;;;;1999.90;999.90;;;16.00;99.90;;;;;;5091016;28;20464;-86
2021/08/21 01:45:26;;;;;;;1999.90;999.90;;;16.00;99.90;;;;;;5097424;28;20460;-86
2021/08/21 01:47:53;;;;;;;1999.90;999.90;;;16.00;99.90;;;;;;5099324;28;20544;-86
2021/08/21 01:50:21;;;;;;;1999.90;999.90;;;16.00;99.90;;;;;;5097436;28;20689;-86
2021/08/21 01:52:49;;;;;;;1999.90;999.90;;;16.00;99.90;;;;;;5099019;28;20499;-86
2021/08/21 01:55:17;;;;;;;1999.90;999.90;;;16.00;99.90;;;;;;5098264;28;20459;-86
2021/08/21 01:57:45;;;;;;;1999.90;999.90;;;15.90;99.90;;;;;;5097066;28;20450;-86
2021/08/21 02:00:13;;;;;;;1999.90;999.90;;;15.90;99.90;;;;;;5111525;28;20473;-87
2021/08/21 02:02:42;;;;;;;1999.90;999.90;;;15.90;99.90;;;;;;5112439;28;20529;-86
2021/08/21 02:05:10;;;;;;;1999.90;999.90;;;15.90;99.90;;;;;;5110845;28;20847;-86
2021/08/21 02:07:37;;;;;;;1999.90;999.90;;;15.90;99.90;;;;;;5107973;28;20551;-87
2021/08/21 02:10:05;;;;;;;1999.90;999.90;;;15.90;99.90;;;;;;5107364;28;20492;-85
2021/08/21 02:12:33;;;;;;;1999.90;999.90;;;15.90;99.90;;;;;;5108369;28;20477;-87
2021/08/21 02:15:00;;;;;;;1999.90;999.90;;;15.90;99.90;;;;;;5093834;28;20474;-85
2021/08/21 02:17:27;;;;;;;1999.90;999.90;;;15.90;99.90;;;;;;5089564;28;20461;-86
2021/08/21 02:19:55;;;;;;;1999.90;999.90;;;15.90;99.90;;;;;;5089200;28;20485;-86
2021/08/21 02:22:22;;;;;;;1999.90;999.90;;;15.80;99.90;;;;;;5090048;28;20512;-86
2021/08/21 02:24:52;;;;;;;1999.90;999.90;;;15.80;99.90;;;;;;5092376;28;20474;-86
2021/08/21 02:27:25;;;;;;;1999.90;999.90;;;15.80;99.90;;;;;;5090422;28;20473;-86
2021/08/21 02:29:52;;;;;;;1999.90;999.90;;;15.80;99.90;;;;;;5092885;28;20444;-86
2021/08/21 02:32:18;;;;;;;1999.90;999.90;;;15.80;99.90;;;;;;5089277;28;20447;-85
2021/08/21 02:34:45;;;;;;;1999.90;999.90;;;15.80;99.90;;;;;;5074229;28;20498;-86
2021/08/21 02:37:14;;;;;;;1999.90;999.90;;;15.80;99.90;;;;;;5074460;28;20456;-85
2021/08/21 02:39:42;;;;;;;1999.90;999.90;;;15.80;99.90;;;;;;5073944;28;20900;-86
2021/08/21 02:42:09;;;;;;;1999.90;999.90;;;15.80;99.90;;;;;;5073998;28;20840;-86
2021/08/21 02:44:36;;;;;;;1999.90;999.90;;;15.80;99.90;;;;;;5073907;28;20549;-86
2021/08/21 02:47:04;;;;;;;1999.90;999.90;;;15.80;99.90;;;;;;5074872;28;20495;-85
2021/08/21 02:49:30;;;;;;;1999.90;999.90;;;15.70;99.90;;;;;;5073958;28;20986;-86
2021/08/21 02:51:57;;;;;;;1999.90;999.90;;;15.70;99.90;;;;;;5073386;28;20464;-86
2021/08/21 02:54:26;;;;;;;1999.90;999.90;;;15.70;99.90;;;;;;5073408;28;20443;-85
2021/08/21 02:56:53;;;;;;;1999.90;999.90;;;15.70;99.90;;;;;;5073221;28;20467;-86
2021/08/21 02:59:20;;;;;;;1999.90;999.90;;;15.70;99.90;;;;;;5073985;28;20530;-85
2021/08/21 03:01:47;;;;;;;1999.90;999.90;;;15.70;99.90;;;;;;5074366;28;20947;-86
2021/08/21 03:04:13;;;;;;;1999.90;999.90;;;15.70;99.90;;;;;;5075049;28;20451;-86
2021/08/21 03:06:40;;;;;;;1999.90;999.90;;;15.70;99.90;;;;;;5073380;28;20513;-87
2021/08/21 03:09:07;;;;;;;1999.90;999.90;;;15.70;99.90;;;;;;5073282;28;20484;-85
2021/08/21 03:11:36;;;;;;;1999.90;999.90;;;15.70;99.90;;;;;;5073441;28;20506;-85
2021/08/21 03:14:03;;;;;;;1999.90;999.90;;;15.60;99.90;;;;;;5073543;28;20462;-86
2021/08/21 03:16:29;;;;;;;1999.90;999.90;;;15.60;99.90;;;;;;5073554;28;20750;-86
2021/08/21 03:18:57;;;;;;;1999.90;999.90;;;15.60;99.90;;;;;;5074471;28;20544;-86
2021/08/21 03:21:23;;;;;;;1999.90;999.90;;;15.60;99.90;;;;;;5073875;28;20485;-86
2021/08/21 03:23:50;;;;;;;1999.90;999.90;;;15.60;99.90;;;;;;5073521;28;20451;-86
2021/08/21 03:26:17;;;;;;;1999.90;999.90;;;15.60;99.90;;;;;;5072259;28;20472;-86
2021/08/21 03:28:45;;;;;;;1999.90;999.90;;;15.60;99.90;;;;;;5072894;28;20487;-86
2021/08/21 03:31:12;;;;;;;1999.90;999.90;;;15.60;99.90;;;;;;5072778;28;20493;-86
2021/08/21 03:33:39;;;;;;;1999.90;999.90;;;15.60;99.90;;;;;;5072992;28;20455;-86
2021/08/21 03:36:07;;;;;;;1999.90;999.90;;;15.50;99.90;;;;;;5072180;28;20575;-86
2021/08/21 03:38:33;;;;;;;1999.90;999.90;;;15.60;99.90;;;;;;5072939;28;20533;-86
2021/08/21 03:41:00;;;;;;;1999.90;999.90;;;15.50;99.90;;;;;;5073136;28;20974;-87
2021/08/21 03:43:27;;;;;;;1999.90;999.90;;;15.50;99.90;;;;;;5073128;28;20850;-86
2021/08/21 03:45:56;;;;;;;1999.90;999.90;;;15.50;99.90;;;;;;5073001;28;20925;-87
2021/08/21 03:48:23;;;;;;;1999.90;999.90;;;15.50;99.90;;;;;;5072601;28;20499;-86
2021/08/21 03:50:50;;;;;;;1999.90;999.90;;;15.50;99.90;;;;;;5073483;28;20853;-85
2021/08/21 03:53:16;;;;;;;1999.90;999.90;;;15.50;99.90;;;;;;5075753;28;20545;-86
2021/08/21 03:55:43;;;;;;;1999.90;999.90;;;15.50;99.90;;;;;;5076571;28;20564;-87
2021/08/21 03:58:10;;;;;;;1999.90;999.90;;;15.50;99.90;;;;;;5076599;28;20462;-87
2021/08/21 04:00:37;;;;;;;1999.90;999.90;;;15.40;99.90;;;;;;5075496;28;20439;-86
2021/08/21 04:03:06;;;;;;;1999.90;999.90;;;15.40;99.90;;;;;;5080464;28;20458;-86
2021/08/21 04:05:33;;;;;;;1999.90;999.90;;;15.40;99.90;;;;;;5078462;28;20523;-86
2021/08/21 04:07:59;;;;;;;1999.90;999.90;;;15.40;99.90;;;;;;5078412;28;20487;-86
2021/08/21 04:10:27;;;;;;;1999.90;999.90;;;15.40;99.90;;;;;;5090448;28;20531;-86
2021/08/21 04:12:54;;;;;;;1999.90;999.90;;;15.40;99.90;;;;;;5084190;28;20442;-86
2021/08/21 04:15:21;;;;;;;1999.90;999.90;;;15.40;99.90;;;;;;5089571;28;20994;-86
2021/08/21 04:17:47;;;;;;;1999.90;999.90;;;15.40;99.90;;;;;;5080038;28;20447;-86
2021/08/21 04:20:16;;;;;;;1999.90;999.90;;;15.40;99.90;;;;;;5092454;28;20453;-87
2021/08/21 04:22:43;;;;;;;1999.90;999.90;;;15.50;99.90;;;;;;5087457;28;20448;-86
2021/08/21 04:25:11;;;;;;;1999.90;999.90;;;15.50;99.90;;;;;;5098785;28;20904;-87
2021/08/21 04:27:37;;;;;;;1999.90;999.90;;;15.50;99.90;;;;;;5077328;28;20494;-87
2021/08/21 04:30:06;;;;;;;1999.90;999.90;;;15.50;99.90;;;;;;5094841;28;20440;-87
2021/08/21 04:32:33;;;;;;;1999.90;999.90;;;15.50;99.90;;;;;;5084543;28;20451;-86
2021/08/21 04:37:34;;;;;;;1999.90;999.90;;;15.50;99.90;;;;;;5078562;28;20481;-82
2021/08/21 04:40:01;;;;;;;1999.90;999.90;;;15.50;99.90;;;;;;5093225;28;20951;-82
2021/08/21 04:42:28;;;;;;;1999.90;999.90;;;15.50;99.90;;;;;;5083647;28;20438;-82
2021/08/21 04:44:59;;;;;;;1999.90;999.90;;;15.60;99.90;;;;;;5086094;28;20451;-82
2021/08/21 04:47:27;;;;;;;1999.90;999.90;;;15.60;99.90;;;;;;5076540;28;20568;-81
2021/08/21 04:49:54;;;;;;;1999.90;999.90;;;15.60;99.90;;;;;;5075104;28;20431;-82
2021/08/21 04:52:21;;;;;;;1999.90;999.90;;;15.70;99.90;;;;;;5075874;28;20439;-84
2021/08/21 04:54:51;;;;;;;1999.90;999.90;;;15.70;99.90;;;;;;5075768;28;20458;-82
2021/08/21 04:57:18;;;;;;;1999.90;999.90;;;15.80;99.90;;;;;;5068697;28;20551;-82
2021/08/21 04:59:44;;;;;;;1999.90;999.90;;;15.90;99.90;;;;;;5075833;28;20443;-82
2021/08/21 05:02:11;;;;;;;1999.90;999.90;;;15.90;99.90;;;;;;5074898;28;21022;-83
2021/08/21 05:04:38;;;;;;;1999.90;999.90;;;16.00;99.90;;;;;;5078693;28;21144;-88
2021/08/21 05:07:05;;;;;;;1999.90;999.90;;;16.10;99.90;;;;;;5092429;28;20468;-84
2021/08/21 05:09:32;;;;;;;1999.90;999.90;;;16.10;99.90;;;;;;5079351;28;20447;-83
2021/08/21 05:12:00;;;;;;;1999.90;999.90;;;16.20;99.90;;;;;;5079552;28;20541;-83
2021/08/21 05:14:27;;;;;;;1999.90;999.90;;;16.30;99.90;;;;;;5063068;28;20452;-84
2021/08/21 05:16:54;;;;;;;1999.90;999.90;;;16.30;99.90;;;;;;5078926;28;20463;-84
2021/08/21 05:19:29;;;;;;;1999.90;999.90;;;16.40;99.90;;;;;;5080913;28;20444;-84
2021/08/21 05:21:58;;;;;;;1999.90;999.90;;;16.50;99.90;;;;;;5082984;28;20449;-84
2021/08/21 05:24:25;;;;;;;1999.90;999.90;;;16.60;99.90;;;;;;5082403;28;20475;-83
2021/08/21 05:26:52;;;;;;;1999.90;999.90;;;16.70;99.90;;;;;;5083106;28;20497;-85
2021/08/21 05:29:20;;;;;;;1999.90;999.90;;;16.70;99.90;;;;;;5082604;28;20856;-87
2021/08/21 05:31:48;;;;;;;1999.90;999.90;;;16.80;99.90;;;;;;5083883;28;20470;-86
2021/08/21 05:34:15;;;;;;;1999.90;999.90;;;16.90;99.90;;;;;;5080876;28;20452;-87
2021/08/21 05:36:42;;;;;;;1999.90;999.90;;;17.00;99.90;;;;;;5081127;28;20478;-86
2021/08/21 05:39:11;;;;;;;1999.90;999.90;;;17.10;99.90;;;;;;5080559;28;20458;-85
2021/08/21 05:41:38;;;;;;;1999.90;999.90;;;17.20;99.90;;;;;;5081375;28;20469;-86
2021/08/21 05:44:06;;;;;;;1999.90;999.90;;;17.30;99.90;;;;;;5075894;28;20450;-84
2021/08/21 05:46:34;;;;;;;1999.90;999.90;;;17.40;99.90;;;;;;5074514;28;20473;-83
2021/08/21 05:49:00;;;;;;;1999.90;999.90;;;17.40;99.90;;;;;;5074322;28;20486;-83
2021/08/21 05:51:29;;;;;;;1999.90;999.90;;;17.50;99.90;;;;;;5076087;28;20461;-83
2021/08/21 05:53:56;;;;;;;1999.90;999.90;;;17.50;99.90;;;;;;5076500;28;20460;-83
2021/08/21 05:56:22;;;;;;;1999.90;999.90;;;17.60;99.90;;;;;;5075595;28;20474;-83
2021/08/21 05:58:49;;;;;;;1999.90;999.90;;;17.60;99.90;;;;;;5075648;28;20460;-85
2021/08/21 06:01:16;;;;;;;1999.90;999.90;;;17.70;99.90;;;;;;5075606;28;20834;-83
2021/08/21 06:03:44;;;;;;;1999.90;999.90;;;17.70;99.90;;;;;;5075633;28;20445;-83
2021/08/21 06:06:12;;;;;;;1999.90;999.90;;;17.80;99.90;;;;;;5075189;28;20474;-83
2021/08/21 06:08:38;;;;;;;1999.90;999.90;;;17.90;99.90;;;;;;5076295;28;20477;-83
2021/08/21 06:11:05;;;;;;;1999.90;999.90;;;17.90;99.90;;;;;;5075991;28;20454;-83
2021/08/21 06:13:32;;;;;;;1999.90;999.90;;;18.00;99.90;;;;;;5074703;28;20452;-84
2021/08/21 06:15:59;;;;;;;1999.90;999.90;;;18.00;99.90;;;;;;5074341;28;20464;-83
2021/08/21 06:18:26;;;;;;;1999.90;999.90;;;18.10;99.90;;;;;;5074698;28;21042;-83
2021/08/21 06:20:54;;;;;;;1999.90;999.90;;;18.10;99.90;;;;;;5074317;28;20457;-83
2021/08/21 06:23:21;;;;;;;1999.90;999.90;;;18.10;99.90;;;;;;5074900;28;20457;-83
2021/08/21 06:25:48;;;;;;;1999.90;999.90;;;18.10;99.90;;;;;;5075097;28;20567;-83
2021/08/21 06:28:14;;;;;;;1999.90;999.90;;;18.20;99.90;;;;;;5076004;28;20671;-85
2021/08/21 06:30:41;;;;;;;1999.90;999.90;;;18.30;99.90;;;;;;5075450;28;20455;-83
2021/08/21 06:33:08;;;;;;;1999.90;999.90;;;18.40;99.90;;;;;;5075734;28;20457;-82
2021/08/21 06:35:35;;;;;;;1999.90;999.90;;;18.40;99.90;;;;;;5074915;28;20482;-84
2021/08/21 06:38:03;;;;;;;1999.90;999.90;;;18.50;99.90;;;;;;5074801;28;20971;-83
2021/08/21 06:40:30;;;;;;;1999.90;999.90;;;18.40;99.90;;;;;;5075669;28;20950;-83
2021/08/21 06:42:57;;;;;;;1999.90;999.90;;;18.40;99.90;;;;;;5076053;28;20455;-83
2021/08/21 06:45:24;;;;;;;1999.90;999.90;;;18.50;99.90;;;;;;5076438;28;20447;-83
2021/08/21 06:47:51;;;;;;;1999.90;999.90;;;18.60;99.90;;;;;;5075243;28;20497;-84
2021/08/21 06:50:17;;;;;;;1999.90;999.90;;;18.70;99.90;;;;;;5076083;28;20500;-84
2021/08/21 06:52:44;;;;;;;1999.90;999.90;;;18.80;99.90;;;;;;5074725;28;20840;-84
2021/08/21 06:55:12;;;;;;;1999.90;999.90;;;18.90;99.90;;;;;;5074656;28;20454;-84
2021/08/21 06:57:39;;;;;;;1999.90;999.90;;;18.90;99.90;;;;;;5074501;28;20447;-84
2021/08/21 07:00:07;;;;;;;1999.90;999.90;;;19.00;99.90;;;;;;5073798;28;20453;-85
2021/08/21 07:02:34;;;;;;;1999.90;999.90;;;19.00;99.90;;;;;;5074062;28;20451;-84
2021/08/21 07:05:01;;;;;;;1999.90;999.90;;;19.00;99.90;;;;;;5076426;28;20460;-84
2021/08/21 07:07:29;;;;;;;1999.90;999.90;;;19.10;99.90;;;;;;5078028;28;20866;-84
2021/08/21 07:09:56;;;;;;;1999.90;999.90;;;19.20;99.90;;;;;;5076394;28;20484;-83
2021/08/21 07:12:24;;;;;;;1999.90;999.90;;;19.30;99.90;;;;;;5076689;28;20453;-85
2021/08/21 07:14:51;;;;;;;1999.90;999.90;;;19.30;99.90;;;;;;5077887;28;20449;-85
2021/08/21 07:17:18;;;;;;;1999.90;999.90;;;19.40;99.90;;;;;;5076431;28;20581;-85
2021/08/21 07:19:45;;;;;;;1999.90;999.90;;;19.50;99.90;;;;;;5063008;28;21001;-87
2021/08/21 07:22:12;;;;;;;1999.90;999.90;;;19.50;99.90;;;;;;5078901;28;20457;-86
2021/08/21 07:24:38;;;;;;;1999.90;999.90;;;19.50;99.90;;;;;;5069252;28;20456;-85
2021/08/21 07:27:06;;;;;;;1999.90;999.90;;;19.60;99.90;;;;;;5077221;28;20517;-87
2021/08/21 07:29:34;;;;;;;1999.90;999.90;;;19.60;99.90;;;;;;5078900;28;20546;-85
2021/08/21 07:32:01;;;;;;;1999.90;999.90;;;19.60;99.90;;;;;;5075707;28;20965;-85
2021/08/21 07:34:28;;;;;;;1999.90;999.90;;;19.70;99.90;;;;;;5064648;28;20540;-87
2021/08/21 07:36:54;;;;;;;1999.90;999.90;;;19.80;99.90;;;;;;5073917;28;20474;-85
2021/08/21 07:39:21;;;;;;;1999.90;999.90;;;19.80;99.90;;;;;;5078269;28;20456;-86
2021/08/21 07:41:48;;;;;;;1999.90;999.90;;;20.00;99.90;;;;;;5076828;28;20540;-87
2021/08/21 07:44:15;;;;;;;1999.90;999.90;;;20.10;99.90;;;;;;5077659;28;20456;-86
2021/08/21 07:46:44;;;;;;;1999.90;999.90;;;20.10;99.90;;;;;;5077622;28;20554;-85
2021/08/21 07:49:11;;;;;;;1999.90;999.90;;;20.30;99.90;;;;;;5078121;28;20829;-85
2021/08/21 07:51:38;;;;;;;1999.90;999.90;;;20.10;99.90;;;;;;5077186;28;20973;-85
2021/08/21 07:54:04;;;;;;;1999.90;999.90;;;20.40;99.90;;;;;;5077143;28;20533;-85
2021/08/21 07:56:31;;;;;;;1999.90;999.90;;;20.60;99.90;;;;;;5077474;28;20489;-85
2021/08/21 07:58:58;;;;;;;1999.90;999.90;;;20.60;99.90;;;;;;5079033;28;20464;-85
2021/08/21 08:01:25;;;;;;;1999.90;999.90;;;20.50;99.90;;;;;;5078506;28;20457;-87
2021/08/21 08:03:53;;;;;;;1999.90;999.90;;;20.80;99.90;;;;;;5076823;28;20442;-85
2021/08/21 08:06:20;;;;;;;1999.90;999.90;;;20.90;99.90;;;;;;5075758;28;20474;-84
2021/08/21 08:08:47;;;;;;;1999.90;999.90;;;21.00;99.90;;;;;;5074021;28;20478;-85
2021/08/21 08:11:14;;;;;;;1999.90;999.90;;;21.10;99.90;;;;;;5069425;28;20535;-85
2021/08/21 08:13:41;;;;;;;1999.90;999.90;;;21.30;99.90;;;;;;5083863;28;20465;-85
2021/08/21 08:16:08;;;;;;;1999.90;999.90;;;21.20;99.90;;;;;;5084793;28;20978;-85
2021/08/21 08:18:35;;;;;;;1999.90;999.90;;;21.40;99.90;;;;;;5078533;28;20453;-86
2021/08/21 08:21:03;;;;;;;1999.90;999.90;;;21.60;99.90;;;;;;5078344;28;20477;-85
2021/08/21 08:23:30;;;;;;;1999.90;999.90;;;21.20;99.90;;;;;;5084680;28;20470;-85
2021/08/21 08:25:57;;;;;;;1999.90;999.90;;;21.50;99.90;;;;;;5083897;28;20462;-84
2021/08/21 08:28:23;;;;;;;1999.90;999.90;;;21.70;99.90;;;;;;5076499;28;20485;-85
2021/08/21 08:30:50;;;;;;;1999.90;999.90;;;21.80;99.90;;;;;;5073611;28;20462;-86
2021/08/21 08:33:17;;;;;;;1999.90;999.90;;;22.10;99.90;;;;;;5071559;28;20451;-85
2021/08/21 08:35:44;;;;;;;1999.90;999.90;;;22.20;99.90;;;;;;5067218;28;21030;-85
2021/08/21 08:38:12;;;;;;;1999.90;999.90;;;22.10;99.90;;;;;;5073363;28;20447;-86
2021/08/21 08:40:39;;;;;;;1999.90;999.90;;;22.20;99.90;;;;;;5073324;28;20459;-85
2021/08/21 08:43:06;;;;;;;1999.90;999.90;;;22.50;99.90;;;;;;5068705;28;20455;-85
2021/08/21 08:45:33;;;;;;;1999.90;999.90;;;22.70;99.90;;;;;;5070935;28;20505;-84
2021/08/21 08:48:00;;;;;;;1999.90;999.90;;;22.80;99.90;;;;;;5077292;28;20449;-85
2021/08/21 08:50:28;;;;;;;1999.90;999.90;;;22.90;99.90;;;;;;5072857;28;20489;-86
2021/08/21 08:52:55;;;;;;;1999.90;999.90;;;22.90;99.90;;;;;;5073928;28;20451;-87
2021/08/21 08:55:24;;;;;;;1999.90;999.90;;;23.10;99.90;;;;;;5083357;28;20449;-84
2021/08/21 08:57:53;;;;;;;1999.90;999.90;;;23.10;99.90;;;;;;5084287;28;20984;-85
2021/08/21 09:00:22;;;;;;;1999.90;999.90;;;23.30;99.90;;;;;;5077078;28;20897;-83
2021/08/21 09:02:50;;;;;;;1999.90;999.90;;;23.40;99.90;;;;;;5073084;28;20439;-84
2021/08/21 09:05:19;;;;;;;1999.90;999.90;;;23.50;99.90;;;;;;5068267;28;20444;-85
2021/08/21 09:07:49;;;;;;;1999.90;999.90;;;23.30;99.90;;;;;;5070372;28;20444;-83
2021/08/21 09:10:21;;;;;;;1999.90;999.90;;;23.40;99.90;;;;;;5076095;28;20543;-84
2021/08/21 09:12:51;;;;;;;1999.90;999.90;;;23.60;99.90;;;;;;5067695;28;20527;-85
2021/08/21 09:15:23;;;;;;;1999.90;999.90;;;23.70;99.90;;;;;;5069372;28;20461;-84
2021/08/21 09:18:06;;;;;;;1999.90;999.90;;;23.70;99.90;;;;;;5072614;28;20451;-85
2021/08/21 09:20:35;;;;;;;1999.90;999.90;;;23.80;99.90;;;;;;5070212;28;20492;-83
2021/08/21 09:23:23;;;;;;;1999.90;999.90;;;23.80;99.90;;;;;;5074368;28;20535;-84
2021/08/21 09:25:51;;;;;;;1999.90;999.90;;;24.00;99.90;;;;;;5075064;28;20467;-85
2021/08/21 09:28:21;;;;;;;1999.90;999.90;;;24.10;99.90;;;;;;5074141;28;20522;-84
2021/08/21 09:30:49;;;;;;;1999.90;999.90;;;24.10;99.90;;;;;;5078607;28;20443;-83
2021/08/21 09:33:18;;;;;;;1999.90;999.90;;;24.30;99.90;;;;;;5076947;28;20534;-84
2021/08/21 09:35:45;;;;;;;1999.90;999.90;;;24.40;99.90;;;;;;5072409;28;20482;-84
2021/08/21 09:38:12;;;;;;;1999.90;999.90;;;24.50;99.90;;;;;;5070890;28;20519;-84
2021/08/21 09:40:41;;;;;;;1999.90;999.90;;;24.60;99.90;;;;;;5081561;28;20518;-84
2021/08/21 09:43:17;;;;;;;1999.90;999.90;;;24.60;99.90;;;;;;5079947;28;20518;-84
2021/08/21 09:45:45;;;;;;;1999.90;999.90;;;24.80;99.90;;;;;;5081020;28;20871;-84
2021/08/21 09:48:12;;;;;;;1999.90;999.90;;;24.60;99.90;;;;;;5078832;28;20439;-83
2021/08/21 09:50:41;;;;;;;1999.90;999.90;;;25.00;99.90;;;;;;5079631;28;20486;-83
2021/08/21 09:53:09;;;;;;;1999.90;999.90;;;25.20;99.90;;;;;;5079745;28;20542;-85
2021/08/21 09:55:36;;;;;;;1999.90;999.90;;;25.20;99.90;;;;;;5081254;28;20545;-86
2021/08/21 09:58:05;;;;;;;1999.90;999.90;;;25.40;99.90;;;;;;5077948;28;20457;-83
2021/08/21 10:00:34;;;;;;;1999.90;999.90;;;25.60;99.90;;;;;;5077201;28;20887;-85
2021/08/21 10:03:04;;;;;;;1999.90;999.90;;;25.80;99.90;;;;;;5074928;28;20455;-85
2021/08/21 10:05:31;;;;;;;1999.90;999.90;;;26.00;99.90;;;;;;5077238;28;20482;-85
2021/08/21 10:08:02;;;;;;;1999.90;999.90;;;26.30;99.90;;;;;;5076835;28;20824;-84
2021/08/21 10:10:34;;;;;;;1999.90;999.90;;;26.40;99.90;;;;;;5071539;28;20479;-87
2021/08/21 10:13:08;;;;;;;1999.90;999.90;;;26.40;99.90;;;;;;5081688;28;20457;-86
2021/08/21 10:15:41;;;;;;;1999.90;999.90;;;26.40;99.90;;;;;;5078918;28;20508;-85
2021/08/21 10:18:10;;;;;;;1999.90;999.90;;;26.40;99.90;;;;;;5069832;28;20465;-83
2021/08/21 10:20:38;;;;;;;1999.90;999.90;;;26.00;99.90;;;;;;5066352;28;20454;-84
2021/08/21 10:23:08;;;;;;;1999.90;999.90;;;25.70;99.90;;;;;;5059339;28;20450;-86
2021/08/21 10:25:36;;;;;;;1999.90;999.90;;;25.50;99.90;;;;;;5060432;28;20471;-83
2021/08/21 10:28:04;;;;;;;1999.90;999.90;;;25.30;99.90;;;;;;5066422;28;20444;-84
2021/08/21 10:30:42;;;;;;;1999.90;999.90;;;25.00;99.90;;;;;;5073171;28;20475;-83
2021/08/21 10:33:11;;;;;;;1999.90;999.90;;;24.90;99.90;;;;;;5077388;28;20496;-84
2021/08/21 10:38:37;;;;;;;1999.90;999.90;;;25.50;99.90;;;;;;5074479;28;20474;-84
2021/08/21 10:41:37;;;;;;;1999.90;999.90;;;26.00;99.90;;;;;;5071796;28;20945;-85
2021/08/21 10:44:04;;;;;;;1999.90;999.90;;;26.10;99.90;;;;;;4975788;28;20431;-85
2021/08/21 10:46:51;;;;;;;1999.90;999.90;;;26.40;99.90;;;;;;4977466;28;20512;-82
2021/08/21 10:49:43;;;;;;;1999.90;999.90;;;26.50;99.90;;;;;;5027835;28;20487;-85
2021/08/21 10:52:43;;;;;;;1999.90;999.90;;;26.20;99.90;;;;;;5055356;28;20494;-84
2021/08/21 10:55:15;;;;;;;1999.90;999.90;;;26.10;99.90;;;;;;5056643;28;20460;-85
2021/08/21 10:57:57;;;;;;;1999.90;999.90;;;25.90;99.90;;;;;;5053403;28;21009;-83
2021/08/21 11:00:58;;;;;;;1999.90;999.90;;;25.80;99.90;;;;;;5062685;28;20447;-85
2021/08/21 11:03:46;;;;;;;1999.90;999.90;;;25.70;99.90;;;;;;4999328;28;20457;-83
2021/08/21 11:06:16;;;;;;;1999.90;999.90;;;25.50;99.90;;;;;;4993800;28;20481;-83
2021/08/21 11:08:57;;;;;;;1999.90;999.90;;;25.40;99.90;;;;;;5030799;28;20454;-84
2021/08/21 11:11:29;;;;;;;1999.90;999.90;;;25.90;99.90;;;;;;5060109;28;20456;-84
2021/08/21 11:13:59;;;;;;;1999.90;999.90;;;26.40;99.90;;;;;;5063346;28;20879;-83
2021/08/21 11:16:48;;;;;;;1999.90;999.90;;;26.70;99.90;;;;;;5049693;28;20556;-83
2021/08/21 11:19:40;;;;;;;1999.90;999.90;;;26.40;99.90;;;;;;5058507;28;20985;-84
2021/08/21 11:22:31;;;;;;;1999.90;999.90;;;26.10;99.90;;;;;;5058289;28;20448;-84
2021/08/21 11:25:25;;;;;;;1999.90;999.90;;;25.90;99.90;;;;;;5044773;28;20451;-85
2021/08/21 11:28:02;;;;;;;1999.90;999.90;;;26.10;99.90;;;;;;5058135;28;21235;-84
2021/08/21 11:30:29;;;;;;;1999.90;999.90;;;26.10;99.90;;;;;;5058351;28;20548;-85
2021/08/21 11:33:02;;;;;;;1999.90;999.90;;;26.20;99.90;;;;;;5064989;28;20447;-84
2021/08/21 11:35:32;;;;;;;1999.90;999.90;;;26.00;99.90;;;;;;5054813;28;20443;-83
2021/08/21 11:38:02;;;;;;;1999.90;999.90;;;26.00;99.90;;;;;;5038396;28;20477;-83
2021/08/21 11:40:35;;;;;;;1999.90;999.90;;;26.00;99.90;;;;;;5039960;28;20436;-83
2021/08/21 11:43:04;;;;;;;1999.90;999.90;;;26.00;99.90;;;;;;5057200;28;20805;-83
2021/08/21 11:45:32;;;;;;;1999.90;999.90;;;25.90;99.90;;;;;;5061639;28;20460;-85
2021/08/21 11:47:59;;;;;;;1999.90;999.90;;;25.70;99.90;;;;;;5055810;28;20493;-83
2021/08/21 11:50:29;;;;;;;1999.90;999.90;;;25.50;99.90;;;;;;5057350;28;20505;-83
2021/08/21 11:52:57;;;;;;;1999.90;999.90;;;25.50;99.90;;;;;;5058739;28;20458;-83
2021/08/21 11:55:27;;;;;;;1999.90;999.90;;;25.30;99.90;;;;;;5051372;28;20539;-84
2021/08/21 11:57:55;;;;;;;1999.90;999.90;;;25.10;99.90;;;;;;5054354;28;20470;-83
2021/08/21 12:00:24;;;;;;;1999.90;999.90;;;25.10;99.90;;;;;;5056216;28;20483;-83
2021/08/21 12:02:52;;;;;;;1999.90;999.90;;;25.20;99.90;;;;;;5056157;28;20447;-83
2021/08/21 12:05:34;;;;;;;1999.90;999.90;;;25.20;99.90;;;;;;5056019;28;20959;-83
2021/08/21 12:08:14;;;;;;;1999.90;999.90;;;25.50;99.90;;;;;;5056063;28;20470;-84
2021/08/21 12:10:48;;;;;;;1999.90;999.90;;;25.50;99.90;;;;;;5055780;28;20480;-83
2021/08/21 12:13:18;;;;;;;1999.90;999.90;;;25.40;99.90;;;;;;5039366;28;20842;-83